Time;durP1;ratioP1;P1;durP2;ratioP2;P2;SDS_P1;SDS_P2;PMS_P1;PMS_P2;Temp;Humidity;BMP_temperature;BMP_pressure;BME280_temperature;BME280_humidity;BME280_pressure;Samples;Min_cycle;Max_cycle;Signal;HPM_P1;HPM_P2
2022/09/29 00:00:25;;;;;;;14.20;9.50;;;4.70;99.90;;;;;;5111631;27;20051;-83
2022/09/29 00:02:52;;;;;;;14.25;10.82;;;4.70;99.90;;;;;;5098527;27;20105;-82
2022/09/29 00:05:18;;;;;;;15.00;10.40;;;4.70;99.90;;;;;;5124730;27;20043;-82
2022/09/29 00:07:44;;;;;;;13.55;10.55;;;4.60;99.90;;;;;;5123221;27;20058;-83
2022/09/29 00:10:10;;;;;;;17.85;11.95;;;4.70;99.90;;;;;;5114515;27;20077;-82
2022/09/29 00:12:36;;;;;;;17.95;13.57;;;4.60;99.90;;;;;;5104015;28;20044;-82
2022/09/29 00:15:03;;;;;;;20.33;13.63;;;4.60;99.90;;;;;;5096473;28;20083;-83
2022/09/29 00:17:28;;;;;;;20.73;13.88;;;4.60;99.90;;;;;;5103923;27;20138;-83
2022/09/29 00:19:54;;;;;;;23.48;14.82;;;4.70;99.90;;;;;;5121084;27;20138;-82
2022/09/29 00:22:20;;;;;;;25.88;15.30;;;4.50;99.90;;;;;;5105283;27;20147;-83
2022/09/29 00:24:48;;;;;;;18.88;13.32;;;4.60;99.90;;;;;;5104422;27;20066;-82
2022/09/29 00:27:15;;;;;;;24.50;15.85;;;4.50;99.90;;;;;;5114720;27;20050;-82
2022/09/29 00:29:41;;;;;;;21.30;14.73;;;4.50;99.90;;;;;;5094111;27;20053;-82
2022/09/29 00:32:06;;;;;;;22.58;15.35;;;4.50;99.90;;;;;;5100553;28;20043;-82
2022/09/29 00:34:32;;;;;;;22.02;15.98;;;4.60;99.90;;;;;;5120151;27;20054;-82
2022/09/29 00:36:59;;;;;;;18.15;14.07;;;4.70;99.90;;;;;;5096674;27;20045;-82
2022/09/29 00:39:24;;;;;;;22.00;14.85;;;4.60;99.90;;;;;;5099220;27;20130;-82
2022/09/29 00:41:52;;;;;;;14.15;10.55;;;4.50;99.90;;;;;;5126006;27;20130;-82
2022/09/29 00:44:18;;;;;;;13.90;9.82;;;4.50;99.90;;;;;;5117470;27;20043;-82
2022/09/29 00:46:49;;;;;;;12.02;9.68;;;4.40;99.90;;;;;;5122961;27;20403;-82
2022/09/29 00:49:44;;;;;;;16.42;11.98;;;4.40;99.90;;;;;;5105675;27;20051;-82
2022/09/29 00:52:24;;;;;;;18.63;13.57;;;4.40;99.90;;;;;;5121560;27;20047;-82
2022/09/29 00:55:13;;;;;;;15.98;11.88;;;4.40;99.90;;;;;;5106238;28;20050;-82
2022/09/29 00:57:46;;;;;;;16.10;12.52;;;4.30;99.90;;;;;;5085895;28;20404;-84
2022/09/29 01:00:13;;;;;;;17.45;12.50;;;4.30;99.90;;;;;;5107845;28;20055;-82
2022/09/29 01:02:48;;;;;;;12.23;9.75;;;4.30;99.90;;;;;;5106855;28;20412;-83
2022/09/29 01:05:25;;;;;;;10.98;8.02;;;4.40;99.90;;;;;;5123197;28;20055;-82
2022/09/29 01:07:51;;;;;;;12.02;9.43;;;4.30;99.90;;;;;;5105211;28;20118;-81
2022/09/29 01:10:18;;;;;;;10.70;8.90;;;4.30;99.90;;;;;;5108180;28;20504;-82
2022/09/29 01:12:45;;;;;;;10.55;8.43;;;4.20;99.90;;;;;;5121086;28;20043;-82
2022/09/29 01:15:15;;;;;;;10.45;8.55;;;4.20;99.90;;;;;;5123929;28;20059;-82
2022/09/29 01:17:43;;;;;;;9.43;7.90;;;4.20;99.90;;;;;;5109842;28;20050;-83
2022/09/29 01:20:21;;;;;;;9.45;7.45;;;4.20;99.90;;;;;;5087419;28;20442;-82
2022/09/29 01:23:05;;;;;;;8.50;6.90;;;4.20;99.90;;;;;;5105391;28;20047;-82
2022/09/29 01:26:17;;;;;;;7.90;6.88;;;4.20;99.90;;;;;;5121903;28;20365;-82
2022/09/29 01:28:49;;;;;;;8.63;6.75;;;4.20;99.90;;;;;;5574226;22;20064;-80
2022/09/29 01:31:45;;;;;;;8.27;6.95;;;4.10;99.90;;;;;;5049491;28;20060;-79
2022/09/29 01:34:25;;;;;;;11.52;8.18;;;4.10;99.90;;;;;;5061361;28;20044;-79
2022/09/29 01:37:15;;;;;;;12.80;8.73;;;4.10;99.90;;;;;;5053418;28;20742;-80
2022/09/29 01:39:50;;;;;;;10.15;7.43;;;4.00;99.90;;;;;;5066064;28;20393;-79
2022/09/29 01:42:29;;;;;;;9.32;8.30;;;4.00;99.90;;;;;;5070865;28;20044;-79
2022/09/29 01:45:11;;;;;;;11.77;8.68;;;4.00;99.90;;;;;;5068785;28;20067;-79
2022/09/29 01:47:43;;;;;;;9.40;7.35;;;3.90;99.90;;;;;;5065381;28;20040;-80
2022/09/29 01:50:17;;;;;;;9.32;7.97;;;3.90;99.90;;;;;;5051757;28;20440;-79
2022/09/29 01:52:50;;;;;;;11.00;8.63;;;3.90;99.90;;;;;;5069745;28;20127;-80
2022/09/29 01:55:24;;;;;;;11.63;8.45;;;3.90;99.90;;;;;;5067680;28;20040;-79
2022/09/29 01:58:04;;;;;;;8.90;7.28;;;3.90;99.90;;;;;;5063996;28;20747;-80
2022/09/29 02:00:34;;;;;;;11.15;8.00;;;3.90;99.90;;;;;;5057512;28;20060;-79
2022/09/29 02:03:16;;;;;;;9.18;7.97;;;3.80;99.90;;;;;;5066639;28;20980;-79
2022/09/29 02:05:57;;;;;;;9.05;7.82;;;3.80;99.90;;;;;;5067985;28;20068;-79
2022/09/29 02:08:32;;;;;;;10.63;8.02;;;3.70;99.90;;;;;;5068940;28;20051;-79
2022/09/29 02:11:03;;;;;;;8.85;7.47;;;3.70;99.90;;;;;;5054092;28;20041;-79
2022/09/29 02:13:45;;;;;;;7.53;6.30;;;3.70;99.90;;;;;;5053363;28;20059;-79
2022/09/29 02:16:16;;;;;;;8.95;7.88;;;3.60;99.90;;;;;;5052728;28;20608;-79
2022/09/29 02:18:56;;;;;;;12.55;9.00;;;3.60;99.90;;;;;;5046882;28;20429;-79
2022/09/29 02:21:22;;;;;;;13.20;9.55;;;3.60;99.90;;;;;;5051545;28;20044;-78
2022/09/29 02:23:50;;;;;;;15.43;10.98;;;3.50;99.90;;;;;;5038770;28;20044;-79
2022/09/29 02:26:17;;;;;;;16.02;11.30;;;3.60;99.90;;;;;;5068483;28;20048;-79
2022/09/29 02:28:44;;;;;;;19.75;12.95;;;3.60;99.90;;;;;;5047335;28;20088;-79
2022/09/29 02:31:10;;;;;;;18.17;12.25;;;3.60;99.90;;;;;;5026987;28;20060;-80
2022/09/29 02:33:36;;;;;;;18.58;12.50;;;3.60;99.90;;;;;;5000472;28;20045;-79
2022/09/29 02:36:11;;;;;;;17.55;11.95;;;3.60;99.90;;;;;;5027881;28;20042;-79
2022/09/29 02:38:58;;;;;;;13.75;10.80;;;3.50;99.90;;;;;;5039100;28;20647;-79
2022/09/29 02:41:31;;;;;;;;;;;3.50;99.90;;;;;;5028437;28;20133;-79
2022/09/29 02:44:27;;;;;;;17.10;11.75;;;3.50;99.90;;;;;;5049309;28;19920;-80
2022/09/29 02:47:40;;;;;;;21.92;12.52;;;3.50;99.90;;;;;;5027535;28;20053;-80
2022/09/29 02:50:24;;;;;;;17.08;12.02;;;3.40;99.90;;;;;;5034082;28;20057;-79
2022/09/29 02:53:08;;;;;;;17.25;11.27;;;3.40;99.90;;;;;;5033500;28;20049;-79
2022/09/29 02:56:04;;;;;;;13.80;10.02;;;3.40;99.90;;;;;;5021333;28;20057;-79
2022/09/29 02:58:53;;;;;;;18.67;12.40;;;3.40;99.90;;;;;;5024202;28;20057;-79
2022/09/29 03:01:18;;;;;;;17.55;12.35;;;3.30;99.90;;;;;;5029959;28;20107;-79
2022/09/29 03:03:44;;;;;;;16.92;11.93;;;3.30;99.90;;;;;;5028338;28;20739;-79
2022/09/29 03:06:11;;;;;;;17.80;12.02;;;3.20;99.90;;;;;;5046958;28;20128;-79
2022/09/29 03:08:37;;;;;;;10.13;8.07;;;3.20;99.90;;;;;;5024766;28;20033;-79
2022/09/29 03:11:02;;;;;;;14.30;10.35;;;3.20;99.90;;;;;;5031004;28;20044;-79
2022/09/29 03:13:28;;;;;;;11.43;8.65;;;3.20;99.90;;;;;;5011318;28;20092;-79
2022/09/29 03:15:53;;;;;;;13.57;9.57;;;3.30;99.90;;;;;;5006409;28;20049;-79
2022/09/29 03:18:22;;;;;;;14.70;10.02;;;3.30;99.90;;;;;;4991121;28;20091;-79
2022/09/29 03:20:47;;;;;;;13.73;9.90;;;3.30;99.90;;;;;;5029185;28;20748;-79
2022/09/29 03:23:13;;;;;;;11.93;8.90;;;3.30;99.90;;;;;;5028514;28;20040;-79
2022/09/29 03:25:39;;;;;;;12.00;9.27;;;3.30;99.90;;;;;;5031003;28;20049;-79
2022/09/29 03:28:05;;;;;;;12.00;9.07;;;3.20;99.90;;;;;;5010755;28;20418;-79
2022/09/29 03:30:31;;;;;;;13.77;9.68;;;3.30;99.90;;;;;;5038562;28;20040;-79
2022/09/29 03:32:56;;;;;;;13.15;9.23;;;3.20;99.90;;;;;;5035287;28;20442;-79
2022/09/29 03:35:22;;;;;;;13.80;9.35;;;3.20;99.90;;;;;;5047961;28;20075;-78
2022/09/29 03:37:48;;;;;;;15.43;10.85;;;3.10;99.90;;;;;;5065085;28;20047;-78
2022/09/29 03:40:13;;;;;;;16.98;11.60;;;3.20;99.90;;;;;;5014763;28;20095;-78
2022/09/29 03:42:39;;;;;;;19.08;11.77;;;3.10;99.90;;;;;;5028777;28;20044;-78
2022/09/29 03:45:05;;;;;;;15.32;10.82;;;3.10;99.90;;;;;;5029956;28;20058;-80
2022/09/29 03:47:31;;;;;;;14.18;10.10;;;3.10;99.90;;;;;;5027666;28;20051;-79
2022/09/29 03:49:56;;;;;;;13.70;10.00;;;3.10;99.90;;;;;;5028579;28;20036;-78
2022/09/29 03:52:22;;;;;;;13.00;9.70;;;3.00;99.90;;;;;;5029235;28;20080;-79
2022/09/29 03:54:48;;;;;;;12.90;9.45;;;3.00;99.90;;;;;;5047403;28;20041;-78
2022/09/29 03:57:13;;;;;;;16.45;10.90;;;3.00;99.90;;;;;;5031511;28;20056;-78
2022/09/29 03:59:39;;;;;;;24.02;13.73;;;3.10;99.90;;;;;;5028559;28;20048;-78
2022/09/29 04:02:05;;;;;;;19.23;11.80;;;3.00;99.90;;;;;;5026184;28;20486;-80
2022/09/29 04:04:31;;;;;;;19.63;11.85;;;3.10;99.90;;;;;;5009995;28;20475;-79
2022/09/29 04:06:56;;;;;;;23.70;13.25;;;3.10;99.90;;;;;;5040836;28;20067;-78
2022/09/29 04:09:22;;;;;;;64.85;21.70;;;3.10;99.90;;;;;;5013405;28;20221;-79
2022/09/29 04:11:47;;;;;;;70.95;23.17;;;3.20;99.90;;;;;;5020887;28;20049;-78
2022/09/29 04:14:13;;;;;;;82.35;24.75;;;3.30;99.90;;;;;;5036029;28;20094;-78
2022/09/29 04:16:39;;;;;;;195.13;38.15;;;3.40;99.90;;;;;;5014407;28;20045;-81
2022/09/29 04:19:04;;;;;;;110.80;28.70;;;3.40;99.90;;;;;;5036720;28;20132;-79
2022/09/29 04:21:30;;;;;;;95.78;28.52;;;3.50;99.90;;;;;;5024013;28;20084;-78
2022/09/29 04:23:56;;;;;;;122.60;31.23;;;3.60;99.90;;;;;;5002541;28;20398;-79
2022/09/29 04:26:21;;;;;;;136.38;35.33;;;3.60;99.90;;;;;;5036444;28;20053;-78
2022/09/29 04:28:47;;;;;;;91.70;28.85;;;3.60;99.90;;;;;;5047061;28;20055;-78
2022/09/29 04:31:13;;;;;;;171.52;40.60;;;3.60;99.90;;;;;;5038799;28;20340;-79
2022/09/29 04:33:39;;;;;;;88.72;28.10;;;3.70;99.90;;;;;;5041615;28;20461;-79
2022/09/29 04:36:04;;;;;;;53.47;25.30;;;3.70;99.90;;;;;;5041002;28;20115;-79
2022/09/29 04:38:30;;;;;;;65.80;28.52;;;3.60;99.90;;;;;;5047275;28;20141;-79
2022/09/29 04:40:56;;;;;;;67.43;29.17;;;3.60;99.90;;;;;;5047786;28;20076;-79
2022/09/29 04:43:22;;;;;;;80.45;27.20;;;3.60;99.90;;;;;;5048531;28;20055;-79
2022/09/29 04:45:48;;;;;;;86.82;30.15;;;3.70;99.90;;;;;;5056801;28;20048;-79
2022/09/29 04:48:14;;;;;;;59.92;26.52;;;3.60;99.90;;;;;;5010021;28;20059;-80
2022/09/29 04:50:41;;;;;;;41.90;23.77;;;3.70;99.90;;;;;;5048991;28;20060;-79
2022/09/29 04:53:08;;;;;;;42.53;20.90;;;3.60;99.90;;;;;;5043572;28;20044;-79
2022/09/29 04:55:37;;;;;;;44.05;21.65;;;3.60;99.90;;;;;;5022675;28;20792;-79
2022/09/29 04:58:03;;;;;;;43.15;22.60;;;3.60;99.90;;;;;;5053384;28;20048;-79
2022/09/29 05:00:30;;;;;;;35.92;21.05;;;3.40;99.90;;;;;;5020315;28;20124;-80
2022/09/29 05:02:57;;;;;;;38.17;21.65;;;3.40;99.90;;;;;;5045638;28;20074;-79
2022/09/29 05:05:22;;;;;;;46.83;22.33;;;3.40;99.90;;;;;;5048758;28;20121;-78
2022/09/29 05:07:48;;;;;;;74.65;26.77;;;3.40;99.90;;;;;;5052598;28;20162;-79
2022/09/29 05:10:14;;;;;;;44.17;22.48;;;3.30;99.90;;;;;;5034023;28;20101;-77
2022/09/29 05:12:40;;;;;;;55.47;24.90;;;3.30;99.90;;;;;;5045626;28;20037;-78
2022/09/29 05:15:06;;;;;;;45.25;22.70;;;3.20;99.90;;;;;;5051034;28;20040;-78
2022/09/29 05:17:32;;;;;;;49.05;22.90;;;3.20;99.90;;;;;;5053500;28;20127;-78
2022/09/29 05:19:58;;;;;;;42.35;22.77;;;3.20;99.90;;;;;;5070192;28;20522;-78
2022/09/29 05:22:24;;;;;;;69.07;26.20;;;3.20;99.90;;;;;;5019767;28;20064;-79
2022/09/29 05:24:51;;;;;;;56.45;23.70;;;3.20;99.90;;;;;;5057387;28;20070;-78
2022/09/29 05:27:17;;;;;;;61.38;25.08;;;3.30;99.90;;;;;;5045275;28;20119;-78
2022/09/29 05:29:42;;;;;;;61.55;26.52;;;3.30;99.90;;;;;;5033706;28;20126;-79
2022/09/29 05:32:08;;;;;;;128.52;31.42;;;3.50;99.90;;;;;;5055799;28;20071;-80
2022/09/29 05:34:34;;;;;;;176.85;34.08;;;3.30;99.90;;;;;;5019128;28;20071;-78
2022/09/29 05:36:59;;;;;;;113.95;28.63;;;3.40;99.90;;;;;;5033251;28;20049;-80
2022/09/29 05:39:25;;;;;;;69.63;24.98;;;3.30;99.90;;;;;;5028364;28;20407;-80
2022/09/29 05:41:51;;;;;;;94.60;29.13;;;3.30;99.90;;;;;;5027109;28;20036;-78
2022/09/29 05:44:17;;;;;;;78.13;28.05;;;3.30;99.90;;;;;;5034722;28;20049;-78
2022/09/29 05:46:42;;;;;;;88.68;26.70;;;3.40;99.90;;;;;;5005889;28;20094;-79
2022/09/29 05:49:09;;;;;;;197.75;38.15;;;3.40;99.90;;;;;;5034706;28;20041;-78
2022/09/29 05:51:35;;;;;;;82.40;30.75;;;3.30;99.90;;;;;;5033279;28;20053;-79
2022/09/29 05:54:01;;;;;;;58.08;26.70;;;3.30;99.90;;;;;;5048313;28;20401;-78
2022/09/29 05:56:27;;;;;;;45.35;25.50;;;3.30;99.90;;;;;;5031759;28;20120;-77
2022/09/29 05:58:53;;;;;;;44.78;26.42;;;3.20;99.90;;;;;;5010440;28;20052;-78
2022/09/29 06:01:23;;;;;;;46.30;25.48;;;3.30;99.90;;;;;;5024558;28;20494;-78
2022/09/29 06:03:52;;;;;;;43.55;25.77;;;3.30;99.90;;;;;;5043367;28;20042;-78
2022/09/29 06:06:20;;;;;;;58.38;30.83;;;3.30;99.90;;;;;;5032651;28;20053;-79
2022/09/29 06:08:47;;;;;;;42.03;26.38;;;3.30;99.90;;;;;;5049119;28;20428;-79
2022/09/29 06:11:16;;;;;;;45.30;26.25;;;3.40;99.90;;;;;;5067813;28;20056;-78
2022/09/29 06:13:50;;;;;;;35.22;24.33;;;3.30;99.90;;;;;;5047112;28;20499;-80
2022/09/29 06:16:18;;;;;;;41.75;25.70;;;3.40;99.90;;;;;;5031516;28;20049;-80
2022/09/29 06:18:45;;;;;;;43.63;26.83;;;3.50;99.90;;;;;;5032463;28;20045;-81
2022/09/29 06:21:17;;;;;;;45.10;27.73;;;3.40;99.90;;;;;;5055792;28;20514;-81
2022/09/29 06:23:43;;;;;;;44.38;26.75;;;3.50;99.90;;;;;;5021381;28;20125;-80
2022/09/29 06:26:11;;;;;;;47.83;28.20;;;3.50;99.90;;;;;;5033998;28;20477;-81
2022/09/29 06:28:38;;;;;;;49.92;28.17;;;3.60;99.90;;;;;;5038246;28;20127;-79
2022/09/29 06:31:10;;;;;;;51.22;28.90;;;3.60;99.90;;;;;;5047349;28;20063;-81
2022/09/29 06:33:36;;;;;;;60.67;30.60;;;3.70;99.90;;;;;;5070506;28;20043;-79
2022/09/29 06:38:54;;;;;;;56.67;30.98;;;4.00;99.90;;;;;;5070395;28;20095;-80
2022/09/29 06:41:20;;;;;;;61.03;33.63;;;4.20;99.90;;;;;;5034398;28;20093;-80
2022/09/29 06:43:46;;;;;;;70.40;34.15;;;4.30;99.90;;;;;;5046545;28;20063;-80
2022/09/29 06:46:12;;;;;;;62.22;33.72;;;4.30;99.90;;;;;;5053234;28;20052;-80
2022/09/29 06:48:37;;;;;;;60.92;32.42;;;4.40;99.90;;;;;;5051924;28;20123;-80
2022/09/29 06:51:07;;;;;;;75.85;35.45;;;4.50;99.90;;;;;;5050568;28;20070;-79
2022/09/29 06:53:33;;;;;;;72.18;34.95;;;4.60;99.90;;;;;;5047138;28;20075;-80
2022/09/29 06:56:02;;;;;;;73.07;36.67;;;4.70;99.90;;;;;;5047897;28;20052;-81
2022/09/29 06:58:28;;;;;;;78.68;38.25;;;4.80;99.90;;;;;;5062315;28;20048;-80
2022/09/29 07:00:54;;;;;;;81.20;39.08;;;4.90;99.90;;;;;;5049540;28;20059;-80
2022/09/29 07:03:21;;;;;;;92.22;42.00;;;5.00;99.90;;;;;;5064932;28;20045;-81
2022/09/29 07:05:46;;;;;;;83.82;39.05;;;5.10;99.90;;;;;;5050368;28;20048;-80
2022/09/29 07:08:12;;;;;;;78.30;36.47;;;5.20;99.90;;;;;;5046823;28;20506;-80
2022/09/29 07:10:38;;;;;;;73.45;37.08;;;5.30;99.90;;;;;;5032687;28;20102;-80
2022/09/29 07:13:04;;;;;;;90.55;39.58;;;5.40;99.90;;;;;;5019997;28;20048;-80
2022/09/29 07:15:30;;;;;;;75.72;37.20;;;5.40;99.90;;;;;;5048796;28;20053;-81
2022/09/29 07:17:58;;;;;;;66.60;34.15;;;5.50;99.90;;;;;;5067784;28;20056;-80
2022/09/29 07:20:27;;;;;;;82.30;38.28;;;5.40;99.90;;;;;;5038131;28;20064;-80
2022/09/29 07:22:54;;;;;;;76.97;37.50;;;5.50;99.90;;;;;;5038473;28;20092;-80
2022/09/29 07:25:20;;;;;;;68.47;35.55;;;5.50;99.90;;;;;;5047479;28;20059;-79
2022/09/29 07:27:47;;;;;;;70.38;35.83;;;5.50;99.90;;;;;;5059328;28;20043;-79
2022/09/29 07:30:13;;;;;;;61.97;33.92;;;5.60;99.90;;;;;;5033551;28;20460;-79
2022/09/29 07:32:39;;;;;;;65.55;34.38;;;5.60;99.90;;;;;;5039839;28;20051;-80
2022/09/29 07:35:06;;;;;;;58.25;32.45;;;5.70;99.90;;;;;;5038729;28;20053;-80
2022/09/29 07:37:31;;;;;;;64.30;32.17;;;5.60;99.90;;;;;;5017909;28;20475;-80
2022/09/29 07:39:57;;;;;;;62.60;34.22;;;5.70;99.90;;;;;;5039695;28;20037;-80
2022/09/29 07:42:23;;;;;;;59.78;33.80;;;5.60;99.90;;;;;;5033094;28;20067;-79
2022/09/29 07:44:49;;;;;;;59.08;33.30;;;5.70;99.90;;;;;;5020136;28;20094;-80
2022/09/29 07:47:15;;;;;;;58.40;31.67;;;5.80;99.90;;;;;;5037178;28;20457;-80
2022/09/29 07:49:41;;;;;;;71.60;35.50;;;5.90;99.90;;;;;;5016721;28;20041;-81
2022/09/29 07:52:07;;;;;;;56.15;33.33;;;5.90;99.90;;;;;;5029615;28;20502;-80
2022/09/29 07:54:33;;;;;;;65.35;34.50;;;6.10;99.90;;;;;;5025054;28;20110;-79
2022/09/29 07:57:01;;;;;;;57.50;32.35;;;6.10;99.90;;;;;;5031538;28;20131;-79
2022/09/29 07:59:27;;;;;;;54.78;32.33;;;6.30;99.90;;;;;;5045376;28;20050;-80
2022/09/29 08:01:53;;;;;;;61.92;34.70;;;6.30;99.90;;;;;;5003599;28;20410;-80
2022/09/29 08:04:18;;;;;;;56.80;33.47;;;6.40;99.90;;;;;;5049273;28;20060;-80
2022/09/29 08:06:45;;;;;;;56.38;32.58;;;6.50;99.90;;;;;;5028515;28;20046;-80
2022/09/29 08:09:11;;;;;;;63.50;34.85;;;6.70;99.90;;;;;;5005047;28;20072;-80
2022/09/29 08:11:38;;;;;;;60.45;34.80;;;6.80;99.90;;;;;;5049054;28;20044;-81
2022/09/29 08:14:04;;;;;;;51.35;31.75;;;6.90;99.90;;;;;;5030993;28;20132;-81
2022/09/29 08:16:31;;;;;;;65.22;38.03;;;7.10;99.90;;;;;;5019200;28;20136;-81
2022/09/29 08:18:57;;;;;;;57.42;33.22;;;7.20;99.90;;;;;;5029033;28;20508;-81
2022/09/29 08:21:24;;;;;;;57.47;33.33;;;7.30;99.90;;;;;;4997705;28;20408;-81
2022/09/29 08:23:50;;;;;;;62.55;35.40;;;7.40;99.90;;;;;;5024651;28;20114;-81
2022/09/29 08:26:18;;;;;;;54.88;33.58;;;7.50;99.90;;;;;;5029331;28;20399;-81
2022/09/29 08:28:44;;;;;;;47.85;30.30;;;7.50;99.90;;;;;;5030517;28;20052;-82
2022/09/29 08:31:13;;;;;;;45.13;28.90;;;7.70;99.90;;;;;;5032362;28;20083;-82
2022/09/29 08:33:39;;;;;;;54.97;31.75;;;7.80;99.90;;;;;;5049506;28;20041;-81
2022/09/29 08:36:13;;;;;;;48.05;28.88;;;7.80;99.90;;;;;;5043335;28;20056;-81
2022/09/29 08:38:41;;;;;;;41.08;26.17;;;7.90;99.90;;;;;;5055468;28;20118;-80
2022/09/29 08:41:14;;;;;;;40.65;27.20;;;8.00;99.90;;;;;;5064922;28;20118;-80
2022/09/29 08:43:43;;;;;;;41.08;26.27;;;8.20;99.90;;;;;;5032596;28;20387;-82
2022/09/29 08:46:28;;;;;;;38.60;25.70;;;8.30;99.90;;;;;;5062901;28;20106;-81
2022/09/29 08:48:55;;;;;;;36.75;25.45;;;8.30;99.90;;;;;;5044213;28;20400;-80
2022/09/29 08:51:35;;;;;;;35.55;24.98;;;8.40;99.90;;;;;;5032486;28;20048;-81
2022/09/29 08:54:25;;;;;;;34.65;23.48;;;8.50;99.90;;;;;;5049154;28;20045;-81
2022/09/29 08:56:51;;;;;;;35.45;23.88;;;8.60;99.90;;;;;;5033084;28;20045;-82
2022/09/29 08:59:17;;;;;;;35.58;24.40;;;8.80;99.90;;;;;;5019740;28;20052;-81
2022/09/29 09:02:15;;;;;;;30.45;22.40;;;9.00;99.90;;;;;;5049866;28;20127;-81
2022/09/29 09:05:02;;;;;;;30.80;21.63;;;9.20;99.90;;;;;;5068797;28;20067;-81
2022/09/29 09:07:55;;;;;;;26.38;18.67;;;9.40;99.90;;;;;;5057105;28;20045;-80
2022/09/29 09:10:46;;;;;;;28.20;19.08;;;9.60;99.90;;;;;;5068109;28;20076;-80
2022/09/29 09:13:17;;;;;;;25.55;18.10;;;9.70;99.90;;;;;;5051228;28;20048;-80
2022/09/29 09:15:46;;;;;;;21.35;17.52;;;9.70;99.90;;;;;;5035673;28;20041;-80
2022/09/29 09:18:24;;;;;;;20.63;15.75;;;9.70;99.90;;;;;;5044403;28;20102;-80
2022/09/29 09:21:03;;;;;;;19.98;14.48;;;9.90;99.90;;;;;;5048509;28;20059;-80
2022/09/29 09:23:48;;;;;;;20.60;15.38;;;10.00;99.90;;;;;;5031982;28;20056;-79
2022/09/29 09:26:14;;;;;;;16.25;13.10;;;10.10;99.90;;;;;;5048907;28;20057;-79
2022/09/29 09:28:48;;;;;;;14.68;12.00;;;10.20;99.90;;;;;;5007401;28;20415;-79
2022/09/29 09:31:30;;;;;;;13.25;10.13;;;10.30;99.90;;;;;;5042588;28;20048;-80
2022/09/29 09:34:02;;;;;;;14.82;11.07;;;10.50;99.90;;;;;;5031324;28;20041;-81
2022/09/29 09:36:36;;;;;;;13.13;9.98;;;10.60;99.90;;;;;;5048158;28;20037;-80
2022/09/29 09:39:14;;;;;;;10.88;9.30;;;10.80;99.90;;;;;;5047820;28;20132;-81
2022/09/29 09:41:41;;;;;;;8.63;6.85;;;10.90;99.90;;;;;;5031541;28;20410;-81
2022/09/29 09:44:19;;;;;;;9.93;8.13;;;10.90;99.90;;;;;;5047415;28;20494;-81
2022/09/29 09:46:49;;;;;;;9.20;7.32;;;11.10;99.90;;;;;;5048278;28;20049;-81
2022/09/29 09:49:30;;;;;;;10.27;7.78;;;11.20;99.90;;;;;;5031001;28;20529;-81
2022/09/29 09:52:19;;;;;;;7.88;6.60;;;11.40;99.90;;;;;;5031139;28;20502;-81
2022/09/29 09:54:55;;;;;;;8.02;6.63;;;11.50;99.90;;;;;;5023592;28;20056;-81
2022/09/29 09:57:47;;;;;;;9.25;6.93;;;11.60;99.90;;;;;;5051154;28;20053;-81
2022/09/29 10:00:43;;;;;;;8.60;5.95;;;11.80;99.90;;;;;;5034712;28;20486;-80
2022/09/29 10:03:11;;;;;;;10.07;6.70;;;12.00;99.90;;;;;;5051115;28;20048;-80
2022/09/29 10:05:39;;;;;;;6.82;6.00;;;12.20;99.90;;;;;;5015794;28;20287;-80
2022/09/29 10:08:10;;;;;;;6.95;4.70;;;12.50;99.90;;;;;;5028984;28;20049;-81
2022/09/29 10:10:35;;;;;;;5.00;4.38;;;12.70;99.90;;;;;;5052093;28;20079;-81
2022/09/29 10:13:07;;;;;;;5.00;4.30;;;12.70;99.90;;;;;;5018059;28;20049;-82
2022/09/29 10:15:38;;;;;;;4.97;4.00;;;12.90;99.90;;;;;;5036625;28;20075;-81
2022/09/29 10:18:27;;;;;;;4.60;4.07;;;13.10;99.90;;;;;;5060750;28;20056;-81
2022/09/29 10:20:52;;;;;;;3.78;3.38;;;13.30;99.90;;;;;;5029991;28;20070;-80
2022/09/29 10:23:27;;;;;;;4.05;3.20;;;13.50;99.90;;;;;;5054165;28;20056;-80
2022/09/29 10:26:14;;;;;;;3.88;3.50;;;13.70;99.90;;;;;;5054453;28;20080;-79
2022/09/29 10:29:00;;;;;;;5.68;3.65;;;13.80;99.90;;;;;;5053034;28;20468;-80
2022/09/29 10:31:27;;;;;;;8.10;3.53;;;13.90;99.90;;;;;;5051868;28;20056;-80
2022/09/29 10:34:01;;;;;;;4.85;3.38;;;14.20;99.90;;;;;;5060672;28;20406;-80
2022/09/29 10:36:45;;;;;;;4.28;3.08;;;14.30;99.90;;;;;;5034209;28;20049;-80
2022/09/29 10:39:32;;;;;;;5.82;3.00;;;14.50;99.90;;;;;;5034404;28;20563;-81
2022/09/29 10:41:58;;;;;;;5.35;3.40;;;14.70;99.90;;;;;;5045897;28;20551;-81
2022/09/29 10:44:30;;;;;;;4.82;3.70;;;14.80;99.90;;;;;;5050022;28;20056;-81
2022/09/29 10:46:57;;;;;;;8.20;3.13;;;14.90;99.90;;;;;;5063886;28;20048;-80
2022/09/29 10:49:28;;;;;;;3.90;2.75;;;15.00;99.90;;;;;;5065206;28;20045;-80
2022/09/29 10:52:04;;;;;;;3.88;2.70;;;15.10;99.90;;;;;;5035283;28;20162;-80
2022/09/29 10:54:36;;;;;;;3.03;2.78;;;15.10;99.90;;;;;;5039154;28;20053;-80
2022/09/29 10:57:14;;;;;;;3.97;3.58;;;15.10;99.90;;;;;;5064329;28;20044;-80
2022/09/29 10:59:48;;;;;;;5.40;3.65;;;15.10;99.90;;;;;;5051371;28;20087;-81
2022/09/29 11:02:42;;;;;;;4.05;2.60;;;15.30;99.90;;;;;;5039728;28;20059;-81
2022/09/29 11:05:18;;;;;;;3.25;2.45;;;15.30;99.90;;;;;;5047285;28;20453;-81
2022/09/29 11:07:45;;;;;;;;;;;15.70;99.90;;;;;;5050731;28;20785;-81
2022/09/29 11:10:36;;;;;;;3.38;1.40;;;16.10;99.90;;;;;;5035743;28;19925;-80
2022/09/29 11:13:23;;;;;;;1.67;1.58;;;16.90;99.90;;;;;;5062543;28;20432;-82
2022/09/29 11:15:49;;;;;;;1.20;1.10;;;17.80;99.90;;;;;;5041717;28;20087;-81
2022/09/29 11:18:33;;;;;;;1.70;1.58;;;18.20;99.90;;;;;;5069032;28;20090;-81
2022/09/29 11:21:20;;;;;;;2.53;1.30;;;18.80;99.90;;;;;;5070884;28;20072;-80
2022/09/29 11:24:33;;;;;;;2.42;0.80;;;18.60;99.90;;;;;;5070260;28;20040;-81
2022/09/29 11:27:19;;;;;;;2.90;1.10;;;17.50;99.90;;;;;;5007556;28;20052;-81
2022/09/29 11:30:02;;;;;;;;;;;18.20;99.90;;;;;;5052925;28;20193;-80
2022/09/29 11:32:59;;;;;;;2.97;1.45;;;19.00;99.90;;;;;;5069239;28;19920;-80
2022/09/29 11:35:37;;;;;;;1.88;1.30;;;20.20;99.90;;;;;;5050050;28;20053;-81
2022/09/29 11:38:47;;;;;;;2.55;1.60;;;21.70;99.90;;;;;;5049899;28;20457;-81
2022/09/29 11:41:42;;;;;;;1.70;1.30;;;22.60;99.90;;;;;;5034714;28;20426;-82
2022/09/29 11:44:38;;;;;;;1.52;1.08;;;22.70;99.90;;;;;;5047912;28;20048;-81
2022/09/29 11:47:16;;;;;;;2.75;1.00;;;22.30;99.90;;;;;;5069097;28;20135;-81
2022/09/29 11:50:12;;;;;;;2.22;1.08;;;22.00;99.90;;;;;;5041441;28;20106;-81
2022/09/29 11:52:56;;;;;;;1.98;1.02;;;22.30;99.90;;;;;;5065183;28;20045;-81
2022/09/29 11:55:36;;;;;;;0.90;0.60;;;22.10;99.90;;;;;;5078994;28;20494;-82
2022/09/29 11:58:32;;;;;;;3.75;0.85;;;22.10;99.90;;;;;;5069128;28;20040;-82
2022/09/29 12:01:16;;;;;;;1.13;0.47;;;22.20;99.90;;;;;;5040718;28;20453;-82
2022/09/29 12:03:58;;;;;;;0.68;0.50;;;22.40;99.90;;;;;;5068071;28;20078;-81
2022/09/29 12:07:01;;;;;;;0.60;0.40;;;22.90;99.90;;;;;;5052273;28;20818;-82
2022/09/29 12:09:57;;;;;;;0.85;0.40;;;23.00;99.90;;;;;;5068840;28;20083;-81
2022/09/29 12:12:35;;;;;;;0.98;0.30;;;23.90;99.90;;;;;;5057656;28;20485;-81
2022/09/29 12:15:37;;;;;;;0.57;0.40;;;23.60;96.20;;;;;;5056172;28;20128;-82
2022/09/29 12:18:12;;;;;;;0.57;0.32;;;23.20;99.90;;;;;;5038988;28;20389;-82
2022/09/29 12:20:43;;;;;;;0.40;0.40;;;24.00;99.90;;;;;;5065615;28;20129;-81
2022/09/29 12:23:12;;;;;;;1.55;0.25;;;24.10;99.90;;;;;;5051333;28;20049;-81
2022/09/29 12:25:59;;;;;;;0.30;0.10;;;23.90;99.90;;;;;;5052064;28;20051;-81
2022/09/29 12:28:35;;;;;;;1.45;0.20;;;23.80;99.90;;;;;;5050833;28;20449;-81
2022/09/29 12:31:11;;;;;;;0.60;0.40;;;24.60;99.90;;;;;;5052227;28;20474;-81
2022/09/29 12:33:42;;;;;;;0.82;0.40;;;25.20;99.90;;;;;;5044240;28;20040;-81
2022/09/29 12:36:45;;;;;;;0.70;0.28;;;26.00;99.90;;;;;;5039294;28;20056;-81
2022/09/29 12:39:28;;;;;;;1.17;0.50;;;26.30;99.90;;;;;;5057439;28;20387;-81
2022/09/29 12:42:07;;;;;;;0.88;0.50;;;25.60;68.50;;;;;;5036097;28;20044;-81
2022/09/29 12:44:41;;;;;;;0.60;0.40;;;25.70;99.90;;;;;;5052705;28;20044;-81
2022/09/29 12:47:16;;;;;;;0.98;0.40;;;26.20;99.90;;;;;;5036294;28;20051;-81
2022/09/29 12:50:01;;;;;;;0.75;0.43;;;26.70;99.90;;;;;;5071749;28;20904;-80
2022/09/29 12:52:39;;;;;;;0.65;0.40;;;26.70;85.40;;;;;;5054662;28;20083;-81
2022/09/29 12:55:13;;;;;;;0.30;0.30;;;26.60;80.50;;;;;;5071997;28;20083;-81
2022/09/29 12:57:41;;;;;;;1.02;0.60;;;26.80;74.20;;;;;;5071531;28;20075;-81
2022/09/29 13:00:14;;;;;;;0.80;0.50;;;26.90;73.70;;;;;;5054344;28;20055;-81
2022/09/29 13:03:03;;;;;;;0.63;0.40;;;27.40;94.20;;;;;;5071418;28;20524;-81
2022/09/29 13:05:59;;;;;;;1.65;0.30;;;27.70;93.80;;;;;;5051755;28;20040;-81
2022/09/29 13:08:40;;;;;;;2.30;0.52;;;27.00;69.30;;;;;;5051814;28;20041;-83
2022/09/29 13:11:45;;;;;;;1.52;0.60;;;26.30;89.10;;;;;;5069756;28;20052;-82